createdAt,value
2019-01-29T00:00:52.158Z,1.10
2019-01-29T00:03:21.267Z,1.20
2019-01-29T00:05:50.344Z,1.20
2019-01-29T00:08:19.377Z,1.30
2019-01-29T00:10:48.273Z,1.30
2019-01-29T00:13:17.218Z,1.20
2019-01-29T00:15:46.192Z,1.20
2019-01-29T00:18:15.516Z,1.20
2019-01-29T00:20:44.503Z,1.20
2019-01-29T00:23:13.509Z,1.20
2019-01-29T00:25:42.666Z,1.20
2019-01-29T00:28:11.514Z,1.20
2019-01-29T00:30:40.561Z,1.20
2019-01-29T00:33:09.426Z,1.20
2019-01-29T00:35:38.307Z,1.20
2019-01-29T00:38:07.442Z,1.20
2019-01-29T00:40:36.360Z,1.20
2019-01-29T00:43:05.723Z,1.20
2019-01-29T00:45:34.702Z,1.20
2019-01-29T00:48:03.728Z,1.20
2019-01-29T00:50:32.816Z,1.20
2019-01-29T00:53:01.707Z,1.20
2019-01-29T00:55:30.556Z,1.20
2019-01-29T00:57:59.487Z,1.30
2019-01-29T01:00:28.609Z,1.20
2019-01-29T01:02:59.545Z,1.20
2019-01-29T01:05:28.318Z,1.20
2019-01-29T01:07:57.249Z,1.10
2019-01-29T01:10:26.273Z,1.20
2019-01-29T01:12:55.147Z,1.10
2019-01-29T01:15:24.207Z,1.10
2019-01-29T01:17:53.140Z,1.10
2019-01-29T01:20:22.138Z,1.10
2019-01-29T01:22:51.572Z,1.10
2019-01-29T01:25:20.742Z,1.10
2019-01-29T01:27:49.668Z,1.10
2019-01-29T01:30:19.501Z,1.10
2019-01-29T01:32:48.602Z,1.10
2019-01-29T01:35:17.877Z,1.00
2019-01-29T01:37:46.966Z,1.00
2019-01-29T01:40:20.902Z,0.90
2019-01-29T01:42:49.931Z,0.90
2019-01-29T01:45:18.923Z,0.90
2019-01-29T01:47:48.098Z,0.90
2019-01-29T01:50:17.154Z,0.90
2019-01-29T01:52:46.144Z,0.90
2019-01-29T01:55:17.266Z,0.90
2019-01-29T01:57:46.665Z,0.90
2019-01-29T02:00:17.733Z,1.00
2019-01-29T02:02:46.829Z,1.00
2019-01-29T02:05:15.848Z,1.00
2019-01-29T02:07:45.153Z,1.10
2019-01-29T02:10:17.738Z,1.10
2019-01-29T02:12:46.566Z,1.10
2019-01-29T02:15:15.686Z,1.20
2019-01-29T02:17:44.586Z,1.20
2019-01-29T02:20:13.797Z,1.20
2019-01-29T02:22:42.735Z,1.20
2019-01-29T02:25:11.791Z,1.20
2019-01-29T02:27:40.825Z,1.20
2019-01-29T02:30:13.403Z,1.30
2019-01-29T02:32:42.456Z,1.20
2019-01-29T02:35:11.491Z,1.20
2019-01-29T02:37:40.515Z,1.20
2019-01-29T02:40:13.686Z,1.20
2019-01-29T02:42:42.768Z,1.20
2019-01-29T02:45:12.786Z,1.20
2019-01-29T02:47:41.782Z,1.10
2019-01-29T02:50:11.662Z,1.10
2019-01-29T02:52:40.726Z,1.10
2019-01-29T02:55:10.513Z,1.10
2019-01-29T02:57:39.494Z,1.10
2019-01-29T03:00:12.382Z,1.10
2019-01-29T03:02:41.382Z,1.00
2019-01-29T03:05:11.186Z,1.00
2019-01-29T03:07:40.211Z,1.00
2019-01-29T03:10:11.240Z,1.00
2019-01-29T03:12:40.221Z,1.10
2019-01-29T03:15:12.211Z,1.10
2019-01-29T03:17:41.214Z,1.10
2019-01-29T03:20:10.797Z,1.10
2019-01-29T03:22:39.732Z,1.20
2019-01-29T03:25:09.778Z,1.20
2019-01-29T03:27:38.794Z,1.20
2019-01-29T03:30:09.870Z,1.30
2019-01-29T03:32:38.907Z,1.30
2019-01-29T03:35:08.300Z,1.30
2019-01-29T03:37:37.306Z,1.30
2019-01-29T03:40:08.010Z,1.20
2019-01-29T03:42:38.323Z,1.30
2019-01-29T03:45:09.498Z,1.20
2019-01-29T03:47:38.437Z,1.20
2019-01-29T03:50:08.130Z,1.20
2019-01-29T03:52:36.994Z,1.20
2019-01-29T03:55:06.487Z,1.10
2019-01-29T03:57:35.406Z,1.10
2019-01-29T04:00:05.779Z,1.10
2019-01-29T04:02:34.727Z,1.10
2019-01-29T04:05:03.933Z,1.00
2019-01-29T04:07:32.963Z,1.00
2019-01-29T04:10:01.911Z,1.00
2019-01-29T04:12:30.903Z,0.90
2019-01-29T04:15:00.275Z,0.90
2019-01-29T04:17:29.458Z,0.90
2019-01-29T04:19:58.383Z,0.80
2019-01-29T04:22:27.240Z,0.80
2019-01-29T04:24:56.250Z,0.70
2019-01-29T04:27:25.155Z,0.70
2019-01-29T04:29:54.017Z,0.70
2019-01-29T04:32:22.975Z,0.70
2019-01-29T04:34:51.905Z,0.70
2019-01-29T04:37:20.842Z,0.80
2019-01-29T04:39:49.711Z,0.80
2019-01-29T04:42:18.573Z,0.80
2019-01-29T04:44:47.505Z,0.80
2019-01-29T04:47:16.525Z,0.80
2019-01-29T04:49:45.453Z,0.80
2019-01-29T04:52:14.402Z,0.80
2019-01-29T04:54:43.333Z,0.80
2019-01-29T04:57:12.357Z,0.80
2019-01-29T04:59:41.451Z,0.80
2019-01-29T05:02:10.567Z,0.80
2019-01-29T05:04:39.432Z,0.80
2019-01-29T05:07:08.367Z,0.80
2019-01-29T05:09:37.402Z,0.80
2019-01-29T05:12:06.400Z,0.80
2019-01-29T05:14:35.358Z,0.80
2019-01-29T05:17:04.444Z,0.70
2019-01-29T05:19:33.477Z,0.70
2019-01-29T05:22:02.493Z,0.70
2019-01-29T05:24:31.366Z,0.70
2019-01-29T05:27:00.281Z,0.70
2019-01-29T05:29:29.289Z,0.70
2019-01-29T05:31:58.247Z,0.70
2019-01-29T05:34:27.109Z,0.60
2019-01-29T05:36:56.055Z,0.60
2019-01-29T05:39:25.048Z,0.50
2019-01-29T05:41:53.926Z,0.50
2019-01-29T05:44:22.823Z,0.50
2019-01-29T05:46:51.804Z,0.40
2019-01-29T05:49:20.673Z,0.40
2019-01-29T05:51:49.606Z,0.40
2019-01-29T05:54:18.560Z,0.40
2019-01-29T05:56:47.581Z,0.40
2019-01-29T05:59:16.662Z,0.40
2019-01-29T06:01:45.604Z,0.40
2019-01-29T06:04:14.556Z,0.40
2019-01-29T06:06:43.498Z,0.40
2019-01-29T06:09:12.530Z,0.30
2019-01-29T06:11:42.682Z,0.30
2019-01-29T06:14:11.649Z,0.30
2019-01-29T06:16:40.702Z,0.30
2019-01-29T06:19:09.730Z,0.30
2019-01-29T06:21:38.643Z,0.30
2019-01-29T06:24:07.775Z,0.30
2019-01-29T06:26:36.773Z,0.30
2019-01-29T06:29:05.740Z,0.30
2019-01-29T06:31:34.610Z,0.20
2019-01-29T06:34:03.577Z,0.20
2019-01-29T06:36:32.435Z,0.20
2019-01-29T06:39:01.309Z,0.20
2019-01-29T06:41:30.238Z,0.20
2019-01-29T06:43:59.092Z,0.20
2019-01-29T06:46:28.019Z,0.20
2019-01-29T06:48:56.962Z,0.20
2019-01-29T06:51:25.829Z,0.30
2019-01-29T06:53:54.741Z,0.30
2019-01-29T06:56:23.598Z,0.40
2019-01-29T06:58:52.704Z,0.40
2019-01-29T07:01:21.677Z,0.50
2019-01-29T07:03:50.856Z,0.50
2019-01-29T07:06:19.877Z,0.50
2019-01-29T07:08:48.902Z,0.60
2019-01-29T07:11:17.942Z,0.60
2019-01-29T07:13:46.874Z,0.60
2019-01-29T07:16:34.802Z,0.70
2019-01-29T07:19:08.173Z,0.70
2019-01-29T07:21:42.505Z,0.70
2019-01-29T07:24:11.788Z,0.70
2019-01-29T07:26:40.873Z,0.70
2019-01-29T07:29:09.986Z,0.70
2019-01-29T07:31:39.006Z,0.70
2019-01-29T07:34:08.064Z,0.70
2019-01-29T07:36:37.054Z,0.70
2019-01-29T07:39:09.730Z,0.70
2019-01-29T07:41:38.753Z,0.80
2019-01-29T07:44:07.762Z,0.80
2019-01-29T07:46:36.749Z,0.80
2019-01-29T07:49:05.769Z,0.80
2019-01-29T07:51:34.715Z,0.80
2019-01-29T07:54:03.827Z,0.80
2019-01-29T07:56:32.818Z,0.80
2019-01-29T07:59:01.801Z,0.90
2019-01-29T08:01:30.718Z,0.90
2019-01-29T08:03:59.591Z,0.90
2019-01-29T08:06:28.442Z,1.00
2019-01-29T08:08:57.389Z,1.00
2019-01-29T08:11:26.233Z,1.00
2019-01-29T08:13:55.178Z,1.00
2019-01-29T08:16:24.111Z,1.00
2019-01-29T08:18:53.234Z,1.10
2019-01-29T08:21:22.109Z,1.20
2019-01-29T08:23:51.035Z,1.20
2019-01-29T08:26:19.980Z,1.40
2019-01-29T08:28:48.974Z,1.60
2019-01-29T08:31:17.906Z,1.90
2019-01-29T08:33:46.810Z,2.30
2019-01-29T08:36:15.693Z,2.90
2019-01-29T08:38:44.609Z,3.60
2019-01-29T08:41:13.537Z,4.20
2019-01-29T08:43:42.474Z,4.90
2019-01-29T08:46:11.545Z,5.40
2019-01-29T08:48:41.723Z,5.90
2019-01-29T08:51:10.734Z,6.30
2019-01-29T08:53:39.696Z,7.10
2019-01-29T08:56:08.619Z,8.00
2019-01-29T08:58:37.649Z,8.80
2019-01-29T09:01:08.727Z,9.30
2019-01-29T09:03:41.192Z,9.90
2019-01-29T09:06:10.266Z,10.40
2019-01-29T09:08:40.971Z,11.30
2019-01-29T09:11:10.710Z,11.90
2019-01-29T09:13:40.579Z,11.80
2019-01-29T09:16:09.790Z,10.70
2019-01-29T09:18:38.847Z,9.40
2019-01-29T09:21:07.814Z,8.20
2019-01-29T09:23:37.283Z,7.10
2019-01-29T09:26:06.338Z,6.20
2019-01-29T09:28:35.306Z,5.70
2019-01-29T09:31:04.542Z,5.40
2019-01-29T09:33:33.685Z,5.20
2019-01-29T09:36:02.748Z,4.90
2019-01-29T09:38:31.695Z,5.20
2019-01-29T09:41:00.981Z,5.40
2019-01-29T09:43:30.112Z,5.40
2019-01-29T09:46:00.831Z,5.30
2019-01-29T09:48:33.143Z,5.20
2019-01-29T09:51:02.056Z,5.00
2019-01-29T09:53:30.984Z,4.80
2019-01-29T09:56:00.035Z,4.70
2019-01-29T09:58:29.226Z,4.50
2019-01-29T10:00:58.729Z,4.50
2019-01-29T10:03:29.869Z,4.30
2019-01-29T10:05:58.933Z,4.20
2019-01-29T10:08:28.389Z,4.10
2019-01-29T10:10:57.438Z,4.00
2019-01-29T10:13:26.395Z,3.80
2019-01-29T10:15:55.380Z,3.60
2019-01-29T10:18:24.482Z,3.50
2019-01-29T10:20:53.683Z,3.40
2019-01-29T10:23:22.641Z,3.30
2019-01-29T10:25:51.601Z,3.40
2019-01-29T10:28:20.475Z,3.40
2019-01-29T10:30:49.507Z,3.50
2019-01-29T10:33:18.470Z,3.60
2019-01-29T10:35:47.478Z,3.60
2019-01-29T10:38:16.425Z,3.70
2019-01-29T10:40:45.385Z,3.70
2019-01-29T10:43:14.403Z,3.70
2019-01-29T10:45:43.228Z,3.70
2019-01-29T10:48:12.283Z,3.70
2019-01-29T10:50:41.295Z,3.70
2019-01-29T10:53:10.411Z,3.70
2019-01-29T10:55:47.095Z,3.80
2019-01-29T10:58:10.284Z,4.00
2019-01-29T11:00:41.313Z,4.00
2019-01-29T11:03:11.400Z,3.90
2019-01-29T11:05:40.867Z,4.00
2019-01-29T11:08:09.897Z,3.90
2019-01-29T11:10:38.938Z,3.90
2019-01-29T11:13:07.874Z,3.90
2019-01-29T11:15:39.139Z,3.80
2019-01-29T11:18:10.798Z,3.80
2019-01-29T11:20:40.375Z,4.10
2019-01-29T11:23:09.598Z,4.80
2019-01-29T11:25:39.102Z,6.70
2019-01-29T11:28:08.219Z,8.80
2019-01-29T11:30:37.595Z,10.00
2019-01-29T11:33:07.131Z,10.30
2019-01-29T11:35:36.279Z,9.90
2019-01-29T11:38:05.455Z,9.30
2019-01-29T11:40:34.950Z,9.50
2019-01-29T11:43:04.797Z,10.40
2019-01-29T11:45:36.460Z,11.30
2019-01-29T11:48:05.596Z,12.00
2019-01-29T11:50:34.607Z,12.70
2019-01-29T11:53:03.602Z,12.70
2019-01-29T11:55:32.633Z,12.80
2019-01-29T11:58:01.661Z,12.80
2019-01-29T12:00:35.662Z,12.70
2019-01-29T12:03:04.846Z,13.10
2019-01-29T12:05:33.873Z,12.90
2019-01-29T12:08:02.918Z,12.30
2019-01-29T12:10:31.922Z,11.80
2019-01-29T12:13:02.487Z,11.80
2019-01-29T12:15:31.684Z,11.50
2019-01-29T12:18:00.696Z,11.60
2019-01-29T12:20:29.695Z,11.40
2019-01-29T12:22:58.672Z,10.80
2019-01-29T12:25:27.623Z,10.30
2019-01-29T12:27:56.723Z,9.50
2019-01-29T12:30:25.902Z,9.00
2019-01-29T12:32:55.922Z,8.60
2019-01-29T12:35:24.968Z,8.30
2019-01-29T12:37:53.969Z,8.30
2019-01-29T12:40:23.008Z,8.30
2019-01-29T12:42:52.013Z,8.40
2019-01-29T12:45:21.472Z,8.30
2019-01-29T12:47:52.890Z,8.10
2019-01-29T12:50:22.995Z,8.00
2019-01-29T12:53:00.794Z,7.90
2019-01-29T12:55:29.881Z,7.70
2019-01-29T12:57:58.932Z,7.30
2019-01-29T13:00:31.142Z,7.10
2019-01-29T13:03:00.257Z,7.00
2019-01-29T13:05:29.229Z,6.60
2019-01-29T13:07:58.288Z,6.30
2019-01-29T13:10:27.937Z,6.10
2019-01-29T13:12:56.930Z,6.00
2019-01-29T13:15:27.814Z,6.00
2019-01-29T13:17:57.204Z,6.00
2019-01-29T13:20:26.257Z,5.90
2019-01-29T13:22:55.265Z,5.90
2019-01-29T13:25:24.502Z,5.90
2019-01-29T13:27:53.463Z,5.80
2019-01-29T13:30:28.126Z,5.80
2019-01-29T13:32:57.118Z,5.70
2019-01-29T13:35:29.103Z,5.50
2019-01-29T13:37:58.162Z,5.40
2019-01-29T13:40:27.507Z,5.30
2019-01-29T13:42:56.570Z,5.30
2019-01-29T13:45:25.907Z,5.30
2019-01-29T13:47:54.914Z,5.30
2019-01-29T13:50:27.582Z,5.40
2019-01-29T13:52:56.874Z,5.50
2019-01-29T13:55:26.122Z,5.60
2019-01-29T13:57:55.336Z,5.50
2019-01-29T14:00:27.478Z,5.50
2019-01-29T14:03:00.020Z,5.40
2019-01-29T14:05:29.598Z,5.20
2019-01-29T14:08:01.695Z,5.00
2019-01-29T14:10:31.236Z,4.80
2019-01-29T14:13:00.555Z,4.70
2019-01-29T14:15:45.765Z,4.70
2019-01-29T14:18:15.526Z,4.70
2019-01-29T14:20:44.747Z,4.70
2019-01-29T14:23:15.149Z,4.60
2019-01-29T14:25:45.442Z,4.60
2019-01-29T14:28:14.508Z,4.50
2019-01-29T14:30:46.160Z,4.50
2019-01-29T14:33:15.564Z,4.40
2019-01-29T14:35:45.330Z,4.30
2019-01-29T14:39:04.060Z,4.30
2019-01-29T14:41:33.590Z,4.30
2019-01-29T14:44:02.895Z,4.20
2019-01-29T14:46:31.886Z,4.10
2019-01-29T14:49:03.003Z,4.10
2019-01-29T14:51:32.151Z,4.00
2019-01-29T14:54:01.210Z,4.00
2019-01-29T14:56:30.275Z,4.00
2019-01-29T14:58:59.521Z,4.00
2019-01-29T15:01:28.990Z,3.90
2019-01-29T15:03:57.913Z,3.90
2019-01-29T15:06:32.182Z,3.90
2019-01-29T15:08:57.857Z,3.80
2019-01-29T15:11:26.975Z,3.80
2019-01-29T15:13:56.133Z,3.80
2019-01-29T15:16:54.114Z,3.80
2019-01-29T15:19:25.424Z,3.70
2019-01-29T15:21:54.537Z,3.80
2019-01-29T15:24:23.594Z,3.80
2019-01-29T15:26:52.827Z,3.70
2019-01-29T15:29:21.750Z,3.70
2019-01-29T15:31:50.770Z,3.60
2019-01-29T15:34:19.641Z,3.50
2019-01-29T15:36:49.833Z,3.50
2019-01-29T15:39:19.680Z,3.40
2019-01-29T15:41:48.983Z,3.40
2019-01-29T15:44:18.058Z,3.40
2019-01-29T15:46:47.092Z,3.40
2019-01-29T15:49:16.228Z,3.30
2019-01-29T15:51:45.193Z,3.20
2019-01-29T15:54:14.226Z,3.10
2019-01-29T15:56:43.524Z,3.10
2019-01-29T15:59:12.651Z,3.00
2019-01-29T16:01:41.524Z,3.00
2019-01-29T16:04:10.695Z,2.90
2019-01-29T16:06:39.802Z,2.90
2019-01-29T16:09:10.451Z,2.80
2019-01-29T16:11:39.589Z,2.80
2019-01-29T16:14:08.660Z,2.90
2019-01-29T16:16:40.312Z,2.80
2019-01-29T16:19:09.766Z,2.80
2019-01-29T16:21:38.767Z,2.70
2019-01-29T16:24:07.758Z,2.70
2019-01-29T16:26:37.029Z,2.60
2019-01-29T16:29:06.214Z,2.60
2019-01-29T16:31:35.973Z,2.50
2019-01-29T16:34:08.067Z,2.40
2019-01-29T16:36:37.340Z,2.30
2019-01-29T16:39:09.666Z,2.30
2019-01-29T16:41:41.200Z,2.20
2019-01-29T16:44:11.729Z,2.20
2019-01-29T16:46:42.067Z,2.20
2019-01-29T16:49:11.731Z,2.10
2019-01-29T16:51:42.752Z,2.10
2019-01-29T16:54:13.036Z,2.10
2019-01-29T16:56:43.004Z,2.00
2019-01-29T16:59:13.318Z,2.00
2019-01-29T17:01:42.574Z,1.90
2019-01-29T17:04:11.595Z,1.90
2019-01-29T17:06:41.763Z,1.90
2019-01-29T17:09:12.287Z,1.80
2019-01-29T17:11:46.070Z,1.80
2019-01-29T17:14:15.127Z,1.80
2019-01-29T17:16:44.178Z,1.70
2019-01-29T17:19:13.248Z,1.70
2019-01-29T17:21:42.183Z,1.70
2019-01-29T17:24:11.762Z,1.70
2019-01-29T17:26:40.967Z,1.70
2019-01-29T17:29:10.270Z,1.70
2019-01-29T17:31:39.317Z,1.60
2019-01-29T17:34:08.343Z,1.60
2019-01-29T17:36:37.346Z,1.50
2019-01-29T17:39:08.449Z,1.50
2019-01-29T17:41:37.404Z,1.50
2019-01-29T17:44:06.589Z,1.50
2019-01-29T17:46:35.592Z,1.50
2019-01-29T17:49:06.119Z,1.50
2019-01-29T17:51:36.639Z,1.40
2019-01-29T17:54:07.877Z,1.70
2019-01-29T17:56:37.983Z,1.60
2019-01-29T17:59:07.118Z,1.50
2019-01-29T18:01:36.287Z,1.50
2019-01-29T18:04:06.247Z,1.50
2019-01-29T18:06:35.522Z,1.40
2019-01-29T18:09:08.854Z,1.40
2019-01-29T18:11:37.882Z,1.30
2019-01-29T18:14:08.523Z,1.30
2019-01-29T18:16:42.277Z,1.30
2019-01-29T18:19:13.004Z,1.30
2019-01-29T18:21:45.353Z,1.20
2019-01-29T18:24:16.853Z,1.20
2019-01-29T18:26:45.973Z,1.20
2019-01-29T18:29:15.865Z,1.10
2019-01-29T18:31:45.329Z,1.10
2019-01-29T18:34:14.602Z,1.10
2019-01-29T18:36:46.527Z,1.10
2019-01-29T18:39:15.630Z,1.10
2019-01-29T18:41:45.647Z,1.00
2019-01-29T18:44:14.590Z,0.90
2019-01-29T18:46:45.904Z,0.90
2019-01-29T18:49:17.095Z,0.90
2019-01-29T18:51:48.585Z,0.90
2019-01-29T18:54:17.707Z,0.90
2019-01-29T18:56:46.627Z,0.90
2019-01-29T18:59:15.811Z,0.90
2019-01-29T19:01:44.843Z,0.80
2019-01-29T19:04:13.928Z,0.90
2019-01-29T19:06:42.981Z,0.80
2019-01-29T19:09:12.262Z,0.80
2019-01-29T19:11:41.395Z,0.80
2019-01-29T19:14:10.528Z,0.80
2019-01-29T19:16:39.542Z,0.80
2019-01-29T19:19:08.465Z,0.70
2019-01-29T19:21:37.613Z,0.80
2019-01-29T19:24:06.699Z,0.80
2019-01-29T19:26:35.754Z,0.80
2019-01-29T19:29:06.512Z,0.70
2019-01-29T19:31:35.616Z,0.80
2019-01-29T19:34:04.713Z,0.80
2019-01-29T19:36:33.785Z,0.80
2019-01-29T19:39:04.394Z,0.80
2019-01-29T19:41:33.387Z,0.70
2019-01-29T19:44:02.341Z,0.70
2019-01-29T19:46:32.241Z,0.70
2019-01-29T19:49:01.579Z,0.60
2019-01-29T19:51:31.352Z,0.60
2019-01-29T19:54:02.254Z,0.60
2019-01-29T19:56:31.351Z,0.60
2019-01-29T19:59:01.391Z,0.50
2019-01-29T20:01:30.455Z,0.50
2019-01-29T20:03:59.659Z,0.50
2019-01-29T20:06:31.076Z,0.50
2019-01-29T20:09:01.051Z,0.60
2019-01-29T20:11:32.799Z,0.50
2019-01-29T20:14:02.285Z,0.50
2019-01-29T20:16:31.696Z,0.40
2019-01-29T20:19:01.038Z,0.40
2019-01-29T20:21:30.146Z,0.40
2019-01-29T20:23:59.190Z,0.40
2019-01-29T20:26:28.443Z,0.40
2019-01-29T20:28:57.622Z,0.40
2019-01-29T20:31:26.715Z,0.40
2019-01-29T20:33:57.997Z,0.30
2019-01-29T20:36:27.195Z,0.30
2019-01-29T20:39:06.779Z,0.30
2019-01-29T20:41:35.678Z,0.30
2019-01-29T20:44:05.719Z,0.30
2019-01-29T20:46:34.871Z,0.20
2019-01-29T20:49:04.645Z,0.20
2019-01-29T20:51:34.986Z,0.20
2019-01-29T20:54:05.161Z,0.30
2019-01-29T20:56:35.356Z,0.30
2019-01-29T20:59:06.879Z,0.30
2019-01-29T21:01:42.808Z,0.30
2019-01-29T21:04:13.013Z,0.20
2019-01-29T21:06:43.036Z,0.20
2019-01-29T21:09:14.623Z,0.20
2019-01-29T21:11:44.213Z,0.20
2019-01-29T21:14:14.539Z,0.10
2019-01-29T21:16:44.621Z,0.20
2019-01-29T21:19:15.759Z,0.20
2019-01-29T21:21:46.346Z,0.10
2019-01-29T21:24:15.610Z,0.10
2019-01-29T21:26:44.516Z,0.10
2019-01-29T21:29:13.594Z,0.10
2019-01-29T21:31:42.696Z,0.10
2019-01-29T21:34:14.582Z,0.10
2019-01-29T21:36:43.445Z,0.00
2019-01-29T21:39:15.126Z,0.00
2019-01-29T21:41:44.123Z,0.00
2019-01-29T21:44:13.467Z,0.00
2019-01-29T21:46:42.591Z,0.00
2019-01-29T21:49:13.877Z,0.00
2019-01-29T21:51:44.120Z,0.00
2019-01-29T21:54:14.765Z,0.10
2019-01-29T21:56:45.208Z,0.10
2019-01-29T21:59:15.391Z,0.00
2019-01-29T22:01:46.078Z,0.00
2019-01-29T22:04:16.136Z,0.00
2019-01-29T22:06:49.210Z,0.00
2019-01-29T22:09:19.243Z,0.00
2019-01-29T22:11:50.063Z,-0.10
2019-01-29T22:14:22.268Z,-0.10
2019-01-29T22:16:51.496Z,-0.10
2019-01-29T22:19:22.199Z,-0.10
2019-01-29T22:21:52.031Z,0.00
2019-01-29T22:24:21.074Z,0.00
2019-01-29T22:26:52.056Z,-0.10
2019-01-29T22:29:28.546Z,-0.10
2019-01-29T22:31:57.920Z,-0.10
2019-01-29T22:34:31.303Z,-0.20
2019-01-29T22:37:02.909Z,-0.20
2019-01-29T22:39:31.864Z,-0.20
2019-01-29T22:42:00.808Z,-0.20
2019-01-29T22:44:29.702Z,-0.20
2019-01-29T22:46:58.654Z,-0.20
2019-01-29T22:49:27.587Z,-0.20
2019-01-29T22:51:57.390Z,-0.20
2019-01-29T22:54:26.582Z,-0.20
2019-01-29T22:56:55.498Z,-0.20
2019-01-29T22:59:33.111Z,-0.10
2019-01-29T23:01:55.363Z,-0.10
2019-01-29T23:04:39.953Z,-0.10
2019-01-29T23:07:30.804Z,-0.10
2019-01-29T23:10:01.367Z,-0.10
2019-01-29T23:12:31.328Z,-0.20
2019-01-29T23:15:00.500Z,-0.20
2019-01-29T23:17:29.512Z,-0.20
2019-01-29T23:19:58.474Z,-0.20
2019-01-29T23:22:27.356Z,-0.20
2019-01-29T23:24:58.388Z,-0.10
2019-01-29T23:27:27.421Z,-0.20
2019-01-29T23:29:56.430Z,-0.20
2019-01-29T23:32:25.414Z,-0.20
2019-01-29T23:34:54.468Z,-0.20
2019-01-29T23:37:23.592Z,-0.20
2019-01-29T23:39:52.501Z,-0.20
2019-01-29T23:42:22.196Z,-0.20
2019-01-29T23:44:51.249Z,-0.20
2019-01-29T23:47:20.317Z,-0.20
2019-01-29T23:49:50.208Z,-0.20
2019-01-29T23:52:19.955Z,-0.20
2019-01-29T23:54:49.208Z,-0.20
2019-01-29T23:57:19.487Z,-0.20
2019-01-29T23:59:53.824Z,-0.20
